sensor_id;sensor_type;location;lat;lon;timestamp;temperature;humidity
41668;DHT22;27356;50.920;5.350;2023-12-04T00:01:21;2.50;99.90
41668;DHT22;27356;50.920;5.350;2023-12-04T00:03:47;2.50;99.90
41668;DHT22;27356;50.920;5.350;2023-12-04T00:06:13;2.50;99.90
41668;DHT22;27356;50.920;5.350;2023-12-04T00:08:39;2.60;99.90
41668;DHT22;27356;50.920;5.350;2023-12-04T00:11:06;2.50;99.90
41668;DHT22;27356;50.920;5.350;2023-12-04T00:13:31;2.50;99.90
41668;DHT22;27356;50.920;5.350;2023-12-04T00:15:57;2.50;99.90
41668;DHT22;27356;50.920;5.350;2023-12-04T00:18:23;2.40;99.90
41668;DHT22;27356;50.920;5.350;2023-12-04T00:20:48;2.50;99.90
41668;DHT22;27356;50.920;5.350;2023-12-04T00:23:14;2.60;99.90
41668;DHT22;27356;50.920;5.350;2023-12-04T00:25:40;2.50;99.90
41668;DHT22;27356;50.920;5.350;2023-12-04T00:28:06;2.60;99.90
41668;DHT22;27356;50.920;5.350;2023-12-04T00:30:31;2.70;99.90
41668;DHT22;27356;50.920;5.350;2023-12-04T00:32:57;2.60;99.90
41668;DHT22;27356;50.920;5.350;2023-12-04T00:35:23;2.60;99.90
41668;DHT22;27356;50.920;5.350;2023-12-04T00:37:48;2.40;99.90
41668;DHT22;27356;50.920;5.350;2023-12-04T00:40:14;2.40;99.90
41668;DHT22;27356;50.920;5.350;2023-12-04T00:42:40;2.50;99.90
41668;DHT22;27356;50.920;5.350;2023-12-04T00:45:06;2.50;99.90
41668;DHT22;27356;50.920;5.350;2023-12-04T00:47:31;2.50;99.90
41668;DHT22;27356;50.920;5.350;2023-12-04T00:49:57;2.50;99.90
41668;DHT22;27356;50.920;5.350;2023-12-04T00:52:23;2.40;99.90
41668;DHT22;27356;50.920;5.350;2023-12-04T00:54:48;2.40;99.90
41668;DHT22;27356;50.920;5.350;2023-12-04T00:57:14;2.50;99.90
41668;DHT22;27356;50.920;5.350;2023-12-04T00:59:40;2.50;99.90
41668;DHT22;27356;50.920;5.350;2023-12-04T01:02:07;2.50;99.90
41668;DHT22;27356;50.920;5.350;2023-12-04T01:04:33;2.40;99.90
41668;DHT22;27356;50.920;5.350;2023-12-04T01:06:59;2.30;99.90
41668;DHT22;27356;50.920;5.350;2023-12-04T01:09:24;2.50;99.90
41668;DHT22;27356;50.920;5.350;2023-12-04T01:11:54;2.40;99.90
41668;DHT22;27356;50.920;5.350;2023-12-04T01:14:20;2.40;99.90
41668;DHT22;27356;50.920;5.350;2023-12-04T01:16:46;2.30;99.90
41668;DHT22;27356;50.920;5.350;2023-12-04T01:19:12;2.30;99.90
41668;DHT22;27356;50.920;5.350;2023-12-04T01:21:38;2.40;99.90
41668;DHT22;27356;50.920;5.350;2023-12-04T01:24:03;2.20;99.90
41668;DHT22;27356;50.920;5.350;2023-12-04T01:26:29;2.10;99.90
41668;DHT22;27356;50.920;5.350;2023-12-04T01:28:55;2.20;99.90
41668;DHT22;27356;50.920;5.350;2023-12-04T01:31:21;2.20;99.90
41668;DHT22;27356;50.920;5.350;2023-12-04T01:33:46;2.20;99.90
41668;DHT22;27356;50.920;5.350;2023-12-04T01:36:12;2.10;99.90
41668;DHT22;27356;50.920;5.350;2023-12-04T01:38:38;2.20;99.90
41668;DHT22;27356;50.920;5.350;2023-12-04T01:41:05;2.30;99.90
41668;DHT22;27356;50.920;5.350;2023-12-04T01:43:30;2.20;99.90
41668;DHT22;27356;50.920;5.350;2023-12-04T01:45:56;2.30;99.90
41668;DHT22;27356;50.920;5.350;2023-12-04T01:48:23;2.30;99.90
41668;DHT22;27356;50.920;5.350;2023-12-04T01:50:51;2.30;99.90
41668;DHT22;27356;50.920;5.350;2023-12-04T01:53:17;2.10;99.90
41668;DHT22;27356;50.920;5.350;2023-12-04T01:55:43;2.20;99.90
41668;DHT22;27356;50.920;5.350;2023-12-04T01:58:09;2.20;99.90
41668;DHT22;27356;50.920;5.350;2023-12-04T02:00:35;2.10;99.90
41668;DHT22;27356;50.920;5.350;2023-12-04T02:03:01;2.20;99.90
41668;DHT22;27356;50.920;5.350;2023-12-04T02:05:27;2.30;99.90
41668;DHT22;27356;50.920;5.350;2023-12-04T02:07:53;2.30;99.90
41668;DHT22;27356;50.920;5.350;2023-12-04T02:10:20;2.30;99.90
41668;DHT22;27356;50.920;5.350;2023-12-04T02:12:45;2.30;99.90
41668;DHT22;27356;50.920;5.350;2023-12-04T02:15:11;2.40;99.90
41668;DHT22;27356;50.920;5.350;2023-12-04T02:17:37;2.50;99.90
41668;DHT22;27356;50.920;5.350;2023-12-04T02:20:05;2.50;99.90
41668;DHT22;27356;50.920;5.350;2023-12-04T02:22:31;2.40;99.90
41668;DHT22;27356;50.920;5.350;2023-12-04T02:24:57;2.40;99.90
41668;DHT22;27356;50.920;5.350;2023-12-04T02:27:30;2.40;99.90
41668;DHT22;27356;50.920;5.350;2023-12-04T02:30:02;2.40;99.90
41668;DHT22;27356;50.920;5.350;2023-12-04T02:32:35;2.30;99.90
41668;DHT22;27356;50.920;5.350;2023-12-04T02:35:04;2.30;99.90
41668;DHT22;27356;50.920;5.350;2023-12-04T02:37:31;2.30;99.90
41668;DHT22;27356;50.920;5.350;2023-12-04T02:39:58;2.40;99.90
41668;DHT22;27356;50.920;5.350;2023-12-04T02:42:24;2.40;99.90
41668;DHT22;27356;50.920;5.350;2023-12-04T02:44:51;2.50;99.90
41668;DHT22;27356;50.920;5.350;2023-12-04T02:47:17;2.40;99.90
41668;DHT22;27356;50.920;5.350;2023-12-04T02:49:43;2.30;99.90
41668;DHT22;27356;50.920;5.350;2023-12-04T02:52:09;2.30;99.90
41668;DHT22;27356;50.920;5.350;2023-12-04T02:54:34;2.50;99.90
41668;DHT22;27356;50.920;5.350;2023-12-04T02:57:00;2.30;99.90
41668;DHT22;27356;50.920;5.350;2023-12-04T02:59:26;2.40;99.90
41668;DHT22;27356;50.920;5.350;2023-12-04T03:01:51;2.40;99.90
41668;DHT22;27356;50.920;5.350;2023-12-04T03:04:19;2.40;99.90
41668;DHT22;27356;50.920;5.350;2023-12-04T03:06:45;2.40;99.90
41668;DHT22;27356;50.920;5.350;2023-12-04T03:09:10;2.40;99.90
41668;DHT22;27356;50.920;5.350;2023-12-04T03:11:39;2.40;99.90
41668;DHT22;27356;50.920;5.350;2023-12-04T03:14:05;2.50;99.90
41668;DHT22;27356;50.920;5.350;2023-12-04T03:16:32;2.50;99.90
41668;DHT22;27356;50.920;5.350;2023-12-04T03:18:57;2.40;99.90
41668;DHT22;27356;50.920;5.350;2023-12-04T03:21:23;2.40;99.90
41668;DHT22;27356;50.920;5.350;2023-12-04T03:23:49;2.60;99.90
41668;DHT22;27356;50.920;5.350;2023-12-04T03:26:15;2.60;99.90
41668;DHT22;27356;50.920;5.350;2023-12-04T03:28:40;2.70;99.90
41668;DHT22;27356;50.920;5.350;2023-12-04T03:31:06;2.60;99.90
41668;DHT22;27356;50.920;5.350;2023-12-04T03:33:32;2.50;99.90
41668;DHT22;27356;50.920;5.350;2023-12-04T03:35:59;2.30;99.90
41668;DHT22;27356;50.920;5.350;2023-12-04T03:38:25;2.40;99.90
41668;DHT22;27356;50.920;5.350;2023-12-04T03:40:51;2.30;99.90
41668;DHT22;27356;50.920;5.350;2023-12-04T03:43:16;2.30;99.90
41668;DHT22;27356;50.920;5.350;2023-12-04T03:45:42;2.30;99.90
41668;DHT22;27356;50.920;5.350;2023-12-04T03:48:08;2.30;99.90
41668;DHT22;27356;50.920;5.350;2023-12-04T03:50:34;2.60;99.90
41668;DHT22;27356;50.920;5.350;2023-12-04T03:52:59;2.40;99.90
41668;DHT22;27356;50.920;5.350;2023-12-04T03:55:25;2.50;99.90
41668;DHT22;27356;50.920;5.350;2023-12-04T03:57:53;2.50;99.90
41668;DHT22;27356;50.920;5.350;2023-12-04T04:00:19;2.50;99.90
41668;DHT22;27356;50.920;5.350;2023-12-04T04:02:45;2.50;99.90
41668;DHT22;27356;50.920;5.350;2023-12-04T04:05:10;2.50;99.90
41668;DHT22;27356;50.920;5.350;2023-12-04T04:07:36;2.60;99.90
41668;DHT22;27356;50.920;5.350;2023-12-04T04:10:02;2.50;99.90
41668;DHT22;27356;50.920;5.350;2023-12-04T04:12:30;2.50;99.90
41668;DHT22;27356;50.920;5.350;2023-12-04T04:14:56;2.50;99.90
41668;DHT22;27356;50.920;5.350;2023-12-04T04:17:22;2.60;99.90
41668;DHT22;27356;50.920;5.350;2023-12-04T04:19:51;2.60;99.90
41668;DHT22;27356;50.920;5.350;2023-12-04T04:22:17;2.70;99.90
41668;DHT22;27356;50.920;5.350;2023-12-04T04:24:42;2.60;99.90
41668;DHT22;27356;50.920;5.350;2023-12-04T04:27:08;2.60;99.90
41668;DHT22;27356;50.920;5.350;2023-12-04T04:29:34;2.60;99.90
41668;DHT22;27356;50.920;5.350;2023-12-04T04:32:00;2.60;99.90
41668;DHT22;27356;50.920;5.350;2023-12-04T04:34:26;2.70;99.90
41668;DHT22;27356;50.920;5.350;2023-12-04T04:36:52;2.70;99.90
41668;DHT22;27356;50.920;5.350;2023-12-04T04:39:17;2.70;99.90
41668;DHT22;27356;50.920;5.350;2023-12-04T04:41:44;2.70;99.90
41668;DHT22;27356;50.920;5.350;2023-12-04T04:44:10;2.60;99.90
41668;DHT22;27356;50.920;5.350;2023-12-04T04:46:36;2.50;99.90
41668;DHT22;27356;50.920;5.350;2023-12-04T04:49:01;2.50;99.90
41668;DHT22;27356;50.920;5.350;2023-12-04T04:51:28;2.40;99.90
41668;DHT22;27356;50.920;5.350;2023-12-04T04:53:54;2.70;99.90
41668;DHT22;27356;50.920;5.350;2023-12-04T04:56:21;2.60;99.90
41668;DHT22;27356;50.920;5.350;2023-12-04T04:58:46;2.60;99.90
41668;DHT22;27356;50.920;5.350;2023-12-04T05:01:12;2.60;99.90
41668;DHT22;27356;50.920;5.350;2023-12-04T05:03:38;2.70;99.90
41668;DHT22;27356;50.920;5.350;2023-12-04T05:06:04;2.70;99.90
41668;DHT22;27356;50.920;5.350;2023-12-04T05:08:29;2.50;99.90
41668;DHT22;27356;50.920;5.350;2023-12-04T05:10:55;2.50;99.90
41668;DHT22;27356;50.920;5.350;2023-12-04T05:13:21;2.60;99.90
41668;DHT22;27356;50.920;5.350;2023-12-04T05:15:46;2.80;99.90
41668;DHT22;27356;50.920;5.350;2023-12-04T05:18:12;2.80;99.90
41668;DHT22;27356;50.920;5.350;2023-12-04T05:20:38;2.80;99.90
41668;DHT22;27356;50.920;5.350;2023-12-04T05:23:03;2.80;99.90
41668;DHT22;27356;50.920;5.350;2023-12-04T05:25:29;2.60;99.90
41668;DHT22;27356;50.920;5.350;2023-12-04T05:27:54;2.70;99.90
41668;DHT22;27356;50.920;5.350;2023-12-04T05:30:20;2.60;99.90
41668;DHT22;27356;50.920;5.350;2023-12-04T05:32:46;2.70;99.90
41668;DHT22;27356;50.920;5.350;2023-12-04T05:35:11;2.70;99.90
41668;DHT22;27356;50.920;5.350;2023-12-04T05:37:37;2.70;99.90
41668;DHT22;27356;50.920;5.350;2023-12-04T05:40:03;2.80;99.90
41668;DHT22;27356;50.920;5.350;2023-12-04T05:42:30;2.80;99.90
41668;DHT22;27356;50.920;5.350;2023-12-04T05:44:56;2.80;99.90
41668;DHT22;27356;50.920;5.350;2023-12-04T05:47:22;2.90;99.90
41668;DHT22;27356;50.920;5.350;2023-12-04T05:49:48;2.90;99.90
41668;DHT22;27356;50.920;5.350;2023-12-04T05:52:14;2.90;99.90
41668;DHT22;27356;50.920;5.350;2023-12-04T05:54:39;2.80;99.90
41668;DHT22;27356;50.920;5.350;2023-12-04T05:57:05;2.90;99.90
41668;DHT22;27356;50.920;5.350;2023-12-04T05:59:31;2.70;99.90
41668;DHT22;27356;50.920;5.350;2023-12-04T06:01:56;2.70;99.90
41668;DHT22;27356;50.920;5.350;2023-12-04T06:04:22;2.80;99.90
41668;DHT22;27356;50.920;5.350;2023-12-04T06:06:48;2.80;99.90
41668;DHT22;27356;50.920;5.350;2023-12-04T06:09:13;2.80;99.90
41668;DHT22;27356;50.920;5.350;2023-12-04T06:11:42;2.80;99.90
41668;DHT22;27356;50.920;5.350;2023-12-04T06:14:07;2.70;99.90
41668;DHT22;27356;50.920;5.350;2023-12-04T06:16:33;2.60;99.90
41668;DHT22;27356;50.920;5.350;2023-12-04T06:18:59;2.80;99.90
41668;DHT22;27356;50.920;5.350;2023-12-04T06:21:24;2.70;99.90
41668;DHT22;27356;50.920;5.350;2023-12-04T06:23:50;2.80;99.90
41668;DHT22;27356;50.920;5.350;2023-12-04T06:26:16;3.00;99.90
41668;DHT22;27356;50.920;5.350;2023-12-04T06:28:43;3.00;99.90
41668;DHT22;27356;50.920;5.350;2023-12-04T06:31:10;2.90;99.90
41668;DHT22;27356;50.920;5.350;2023-12-04T06:33:36;2.90;99.90
41668;DHT22;27356;50.920;5.350;2023-12-04T06:36:02;2.90;99.90
41668;DHT22;27356;50.920;5.350;2023-12-04T06:38:32;3.00;99.90
41668;DHT22;27356;50.920;5.350;2023-12-04T06:41:01;3.10;99.90
41668;DHT22;27356;50.920;5.350;2023-12-04T06:43:27;3.10;99.90
41668;DHT22;27356;50.920;5.350;2023-12-04T06:45:53;3.10;99.90
41668;DHT22;27356;50.920;5.350;2023-12-04T06:48:22;3.30;99.90
41668;DHT22;27356;50.920;5.350;2023-12-04T06:50:48;3.30;99.90
41668;DHT22;27356;50.920;5.350;2023-12-04T06:53:14;3.50;99.90
41668;DHT22;27356;50.920;5.350;2023-12-04T06:55:40;3.50;99.90
41668;DHT22;27356;50.920;5.350;2023-12-04T06:58:05;3.40;99.90
41668;DHT22;27356;50.920;5.350;2023-12-04T07:00:31;3.40;99.90
41668;DHT22;27356;50.920;5.350;2023-12-04T07:02:57;3.50;99.90
41668;DHT22;27356;50.920;5.350;2023-12-04T07:05:22;3.70;99.90
41668;DHT22;27356;50.920;5.350;2023-12-04T07:07:48;3.60;99.90
41668;DHT22;27356;50.920;5.350;2023-12-04T07:10:14;3.60;99.90
41668;DHT22;27356;50.920;5.350;2023-12-04T07:12:44;3.70;99.90
41668;DHT22;27356;50.920;5.350;2023-12-04T07:15:10;3.70;99.90
41668;DHT22;27356;50.920;5.350;2023-12-04T07:17:38;3.70;99.90
41668;DHT22;27356;50.920;5.350;2023-12-04T07:20:04;3.70;99.90
41668;DHT22;27356;50.920;5.350;2023-12-04T07:22:34;3.70;99.90
41668;DHT22;27356;50.920;5.350;2023-12-04T07:25:00;3.80;99.90
41668;DHT22;27356;50.920;5.350;2023-12-04T07:27:25;3.80;99.90
41668;DHT22;27356;50.920;5.350;2023-12-04T07:29:52;3.80;99.90
41668;DHT22;27356;50.920;5.350;2023-12-04T07:32:18;3.80;99.90
41668;DHT22;27356;50.920;5.350;2023-12-04T07:34:44;3.70;99.90
41668;DHT22;27356;50.920;5.350;2023-12-04T07:37:10;3.80;99.90
41668;DHT22;27356;50.920;5.350;2023-12-04T07:39:35;3.80;99.90
41668;DHT22;27356;50.920;5.350;2023-12-04T07:42:01;3.80;99.90
41668;DHT22;27356;50.920;5.350;2023-12-04T07:44:27;3.80;99.90
41668;DHT22;27356;50.920;5.350;2023-12-04T07:46:53;3.90;99.90
41668;DHT22;27356;50.920;5.350;2023-12-04T07:49:18;3.80;99.90
41668;DHT22;27356;50.920;5.350;2023-12-04T07:51:44;3.80;99.90
41668;DHT22;27356;50.920;5.350;2023-12-04T07:54:10;3.90;99.90
41668;DHT22;27356;50.920;5.350;2023-12-04T07:56:36;4.10;99.90
41668;DHT22;27356;50.920;5.350;2023-12-04T07:59:01;3.90;99.90
41668;DHT22;27356;50.920;5.350;2023-12-04T08:01:27;3.90;99.90
41668;DHT22;27356;50.920;5.350;2023-12-04T08:03:53;4.00;99.90
41668;DHT22;27356;50.920;5.350;2023-12-04T08:06:18;4.00;99.90
41668;DHT22;27356;50.920;5.350;2023-12-04T08:08:45;4.10;99.90
41668;DHT22;27356;50.920;5.350;2023-12-04T08:11:11;3.90;99.90
41668;DHT22;27356;50.920;5.350;2023-12-04T08:13:40;4.00;99.90
41668;DHT22;27356;50.920;5.350;2023-12-04T08:16:13;4.20;99.90
41668;DHT22;27356;50.920;5.350;2023-12-04T08:18:39;4.00;99.90
41668;DHT22;27356;50.920;5.350;2023-12-04T08:21:05;3.80;99.90
41668;DHT22;27356;50.920;5.350;2023-12-04T08:23:31;4.00;99.90
41668;DHT22;27356;50.920;5.350;2023-12-04T08:25:57;3.90;99.90
41668;DHT22;27356;50.920;5.350;2023-12-04T08:28:23;4.00;99.90
41668;DHT22;27356;50.920;5.350;2023-12-04T08:30:48;3.90;99.90
41668;DHT22;27356;50.920;5.350;2023-12-04T08:33:14;4.00;99.90
41668;DHT22;27356;50.920;5.350;2023-12-04T08:35:40;4.00;99.90
41668;DHT22;27356;50.920;5.350;2023-12-04T08:38:06;4.10;99.90
41668;DHT22;27356;50.920;5.350;2023-12-04T08:40:31;4.00;99.90
41668;DHT22;27356;50.920;5.350;2023-12-04T08:42:57;4.00;99.90
41668;DHT22;27356;50.920;5.350;2023-12-04T08:45:23;4.00;99.90
41668;DHT22;27356;50.920;5.350;2023-12-04T08:47:49;4.00;99.90
41668;DHT22;27356;50.920;5.350;2023-12-04T08:50:15;4.20;99.90
41668;DHT22;27356;50.920;5.350;2023-12-04T08:52:42;4.20;99.90
41668;DHT22;27356;50.920;5.350;2023-12-04T08:55:08;4.20;99.90
41668;DHT22;27356;50.920;5.350;2023-12-04T08:57:34;4.30;99.90
41668;DHT22;27356;50.920;5.350;2023-12-04T08:59:59;4.40;99.90
41668;DHT22;27356;50.920;5.350;2023-12-04T09:02:25;4.40;99.90
41668;DHT22;27356;50.920;5.350;2023-12-04T09:04:51;4.50;99.90
41668;DHT22;27356;50.920;5.350;2023-12-04T09:07:16;4.50;99.90
41668;DHT22;27356;50.920;5.350;2023-12-04T09:09:42;4.30;99.90
41668;DHT22;27356;50.920;5.350;2023-12-04T09:12:10;4.40;99.90
41668;DHT22;27356;50.920;5.350;2023-12-04T09:14:35;4.30;99.90
41668;DHT22;27356;50.920;5.350;2023-12-04T09:17:01;4.30;99.90
41668;DHT22;27356;50.920;5.350;2023-12-04T09:19:27;4.40;99.90
41668;DHT22;27356;50.920;5.350;2023-12-04T09:21:53;4.50;99.90
41668;DHT22;27356;50.920;5.350;2023-12-04T09:24:19;4.40;99.90
41668;DHT22;27356;50.920;5.350;2023-12-04T09:26:44;4.40;99.90
41668;DHT22;27356;50.920;5.350;2023-12-04T09:29:13;4.30;99.90
41668;DHT22;27356;50.920;5.350;2023-12-04T09:31:39;4.50;99.90
41668;DHT22;27356;50.920;5.350;2023-12-04T09:34:05;4.40;99.90
41668;DHT22;27356;50.920;5.350;2023-12-04T09:36:31;4.40;99.90
41668;DHT22;27356;50.920;5.350;2023-12-04T09:38:57;4.60;99.90
41668;DHT22;27356;50.920;5.350;2023-12-04T09:41:22;4.60;99.90
41668;DHT22;27356;50.920;5.350;2023-12-04T09:43:48;4.60;99.90
41668;DHT22;27356;50.920;5.350;2023-12-04T09:46:15;4.50;99.90
41668;DHT22;27356;50.920;5.350;2023-12-04T09:48:43;4.50;99.90
41668;DHT22;27356;50.920;5.350;2023-12-04T09:51:09;4.50;99.90
41668;DHT22;27356;50.920;5.350;2023-12-04T09:53:35;4.50;99.90
41668;DHT22;27356;50.920;5.350;2023-12-04T09:56:03;4.60;99.90
41668;DHT22;27356;50.920;5.350;2023-12-04T09:58:30;4.50;99.90
41668;DHT22;27356;50.920;5.350;2023-12-04T10:00:59;4.50;99.90
41668;DHT22;27356;50.920;5.350;2023-12-04T10:03:25;4.60;99.90
41668;DHT22;27356;50.920;5.350;2023-12-04T10:05:53;4.60;99.90
41668;DHT22;27356;50.920;5.350;2023-12-04T10:08:19;4.50;99.90
41668;DHT22;27356;50.920;5.350;2023-12-04T10:10:45;4.50;99.90
41668;DHT22;27356;50.920;5.350;2023-12-04T10:13:11;4.40;99.90
41668;DHT22;27356;50.920;5.350;2023-12-04T10:15:50;4.30;99.90
41668;DHT22;27356;50.920;5.350;2023-12-04T10:18:27;4.20;99.90
41668;DHT22;27356;50.920;5.350;2023-12-04T10:20:54;4.20;99.90
41668;DHT22;27356;50.920;5.350;2023-12-04T10:23:21;4.00;99.90
41668;DHT22;27356;50.920;5.350;2023-12-04T10:25:48;4.10;99.90
41668;DHT22;27356;50.920;5.350;2023-12-04T10:28:15;4.10;99.90
41668;DHT22;27356;50.920;5.350;2023-12-04T10:30:41;4.00;99.90
41668;DHT22;27356;50.920;5.350;2023-12-04T10:33:08;4.00;99.90
41668;DHT22;27356;50.920;5.350;2023-12-04T10:35:35;4.00;99.90
41668;DHT22;27356;50.920;5.350;2023-12-04T10:38:05;3.80;99.90
41668;DHT22;27356;50.920;5.350;2023-12-04T10:40:33;3.90;99.90
41668;DHT22;27356;50.920;5.350;2023-12-04T10:45:38;3.70;99.90
41668;DHT22;27356;50.920;5.350;2023-12-04T10:48:05;3.60;99.90
41668;DHT22;27356;50.920;5.350;2023-12-04T10:50:35;3.60;99.90
41668;DHT22;27356;50.920;5.350;2023-12-04T10:53:05;3.60;99.90
41668;DHT22;27356;50.920;5.350;2023-12-04T10:55:31;3.50;99.90
41668;DHT22;27356;50.920;5.350;2023-12-04T10:57:58;3.40;99.90
41668;DHT22;27356;50.920;5.350;2023-12-04T11:00:25;3.50;99.90
41668;DHT22;27356;50.920;5.350;2023-12-04T11:02:55;3.50;99.90
41668;DHT22;27356;50.920;5.350;2023-12-04T11:05:23;3.50;99.90
41668;DHT22;27356;50.920;5.350;2023-12-04T11:08:01;3.60;99.90
41668;DHT22;27356;50.920;5.350;2023-12-04T11:10:29;3.60;99.90
41668;DHT22;27356;50.920;5.350;2023-12-04T11:13:02;3.70;99.90
41668;DHT22;27356;50.920;5.350;2023-12-04T11:15:31;3.70;99.90
41668;DHT22;27356;50.920;5.350;2023-12-04T11:18:00;3.60;99.90
41668;DHT22;27356;50.920;5.350;2023-12-04T11:20:31;3.60;99.90
41668;DHT22;27356;50.920;5.350;2023-12-04T11:23:01;3.60;99.90
41668;DHT22;27356;50.920;5.350;2023-12-04T11:25:28;3.60;99.90
41668;DHT22;27356;50.920;5.350;2023-12-04T11:27:55;3.80;99.90
41668;DHT22;27356;50.920;5.350;2023-12-04T11:30:21;3.70;99.90
41668;DHT22;27356;50.920;5.350;2023-12-04T11:32:50;3.80;99.90
41668;DHT22;27356;50.920;5.350;2023-12-04T11:35:17;3.80;99.90
41668;DHT22;27356;50.920;5.350;2023-12-04T11:37:47;4.00;99.90
41668;DHT22;27356;50.920;5.350;2023-12-04T11:40:15;4.00;99.90
41668;DHT22;27356;50.920;5.350;2023-12-04T11:42:41;4.20;99.90
41668;DHT22;27356;50.920;5.350;2023-12-04T11:45:08;4.20;99.90
41668;DHT22;27356;50.920;5.350;2023-12-04T11:48:00;4.40;99.90
41668;DHT22;27356;50.920;5.350;2023-12-04T11:50:26;4.40;99.90
41668;DHT22;27356;50.920;5.350;2023-12-04T11:52:52;4.50;99.90
41668;DHT22;27356;50.920;5.350;2023-12-04T11:55:23;4.60;99.90
41668;DHT22;27356;50.920;5.350;2023-12-04T11:57:50;4.50;99.90
41668;DHT22;27356;50.920;5.350;2023-12-04T12:05:22;4.30;99.90
41668;DHT22;27356;50.920;5.350;2023-12-04T12:07:48;4.30;99.90
41668;DHT22;27356;50.920;5.350;2023-12-04T12:10:15;4.20;99.90
41668;DHT22;27356;50.920;5.350;2023-12-04T12:12:42;4.30;99.90
41668;DHT22;27356;50.920;5.350;2023-12-04T12:15:12;4.30;99.90
41668;DHT22;27356;50.920;5.350;2023-12-04T12:17:38;4.20;99.90
41668;DHT22;27356;50.920;5.350;2023-12-04T12:20:14;4.20;99.90
41668;DHT22;27356;50.920;5.350;2023-12-04T12:22:40;4.30;99.90
41668;DHT22;27356;50.920;5.350;2023-12-04T12:25:10;4.20;99.90
41668;DHT22;27356;50.920;5.350;2023-12-04T12:27:37;4.10;99.90
41668;DHT22;27356;50.920;5.350;2023-12-04T12:30:03;4.00;99.90
41668;DHT22;27356;50.920;5.350;2023-12-04T12:32:33;4.00;99.90
41668;DHT22;27356;50.920;5.350;2023-12-04T12:34:59;4.10;99.90
41668;DHT22;27356;50.920;5.350;2023-12-04T12:37:25;4.10;99.90
41668;DHT22;27356;50.920;5.350;2023-12-04T12:39:51;4.00;99.90
41668;DHT22;27356;50.920;5.350;2023-12-04T12:42:28;4.00;99.90
41668;DHT22;27356;50.920;5.350;2023-12-04T12:44:54;4.10;99.90
41668;DHT22;27356;50.920;5.350;2023-12-04T12:47:23;4.10;99.90
41668;DHT22;27356;50.920;5.350;2023-12-04T12:49:49;4.10;99.90
41668;DHT22;27356;50.920;5.350;2023-12-04T12:52:15;4.10;99.90
41668;DHT22;27356;50.920;5.350;2023-12-04T12:54:42;4.20;99.90
41668;DHT22;27356;50.920;5.350;2023-12-04T12:57:08;4.30;99.90
41668;DHT22;27356;50.920;5.350;2023-12-04T12:59:35;4.30;99.90
41668;DHT22;27356;50.920;5.350;2023-12-04T13:02:01;4.20;99.90
41668;DHT22;27356;50.920;5.350;2023-12-04T13:04:37;4.20;99.90
41668;DHT22;27356;50.920;5.350;2023-12-04T13:07:03;4.10;99.90
41668;DHT22;27356;50.920;5.350;2023-12-04T13:09:30;4.10;99.90
41668;DHT22;27356;50.920;5.350;2023-12-04T13:11:55;4.20;99.90
41668;DHT22;27356;50.920;5.350;2023-12-04T13:14:21;4.10;99.90
41668;DHT22;27356;50.920;5.350;2023-12-04T13:16:47;4.10;99.90
41668;DHT22;27356;50.920;5.350;2023-12-04T13:19:12;4.20;99.90
41668;DHT22;27356;50.920;5.350;2023-12-04T13:21:38;4.10;99.90
41668;DHT22;27356;50.920;5.350;2023-12-04T13:24:04;4.10;99.90
41668;DHT22;27356;50.920;5.350;2023-12-04T13:26:33;4.10;99.90
41668;DHT22;27356;50.920;5.350;2023-12-04T13:28:59;4.00;99.90
41668;DHT22;27356;50.920;5.350;2023-12-04T13:31:25;4.00;99.90
41668;DHT22;27356;50.920;5.350;2023-12-04T13:33:53;4.00;99.90
41668;DHT22;27356;50.920;5.350;2023-12-04T13:36:19;4.10;99.90
41668;DHT22;27356;50.920;5.350;2023-12-04T13:38:45;4.20;99.90
41668;DHT22;27356;50.920;5.350;2023-12-04T13:41:10;4.00;99.90
41668;DHT22;27356;50.920;5.350;2023-12-04T13:43:55;4.00;99.90
41668;DHT22;27356;50.920;5.350;2023-12-04T13:46:21;3.90;99.90
41668;DHT22;27356;50.920;5.350;2023-12-04T13:48:48;3.90;99.90
41668;DHT22;27356;50.920;5.350;2023-12-04T13:51:13;3.90;99.90
41668;DHT22;27356;50.920;5.350;2023-12-04T13:53:40;3.90;99.90
41668;DHT22;27356;50.920;5.350;2023-12-04T13:56:12;3.90;99.90
41668;DHT22;27356;50.920;5.350;2023-12-04T13:59:01;3.90;99.90
41668;DHT22;27356;50.920;5.350;2023-12-04T14:01:29;3.90;99.90
41668;DHT22;27356;50.920;5.350;2023-12-04T14:03:56;4.00;99.90
41668;DHT22;27356;50.920;5.350;2023-12-04T14:06:27;4.00;99.90
41668;DHT22;27356;50.920;5.350;2023-12-04T14:08:53;3.90;99.90
41668;DHT22;27356;50.920;5.350;2023-12-04T14:11:19;4.00;99.90
41668;DHT22;27356;50.920;5.350;2023-12-04T14:13:45;3.80;99.90
41668;DHT22;27356;50.920;5.350;2023-12-04T14:16:10;3.80;99.90
41668;DHT22;27356;50.920;5.350;2023-12-04T14:18:36;3.70;99.90
41668;DHT22;27356;50.920;5.350;2023-12-04T14:21:02;3.70;99.90
41668;DHT22;27356;50.920;5.350;2023-12-04T14:23:28;3.80;99.90
41668;DHT22;27356;50.920;5.350;2023-12-04T14:25:54;3.80;99.90
41668;DHT22;27356;50.920;5.350;2023-12-04T14:28:19;4.00;99.90
41668;DHT22;27356;50.920;5.350;2023-12-04T14:30:45;4.00;99.90
41668;DHT22;27356;50.920;5.350;2023-12-04T14:33:11;4.00;99.90
41668;DHT22;27356;50.920;5.350;2023-12-04T14:35:37;4.10;99.90
41668;DHT22;27356;50.920;5.350;2023-12-04T14:38:03;4.00;99.90
41668;DHT22;27356;50.920;5.350;2023-12-04T14:40:30;3.90;99.90
41668;DHT22;27356;50.920;5.350;2023-12-04T14:42:56;4.00;99.90
41668;DHT22;27356;50.920;5.350;2023-12-04T14:45:22;4.00;99.90
41668;DHT22;27356;50.920;5.350;2023-12-04T14:47:48;3.90;99.90
41668;DHT22;27356;50.920;5.350;2023-12-04T14:50:16;4.00;99.90
41668;DHT22;27356;50.920;5.350;2023-12-04T14:52:41;3.90;99.90
41668;DHT22;27356;50.920;5.350;2023-12-04T14:55:15;3.90;99.90
41668;DHT22;27356;50.920;5.350;2023-12-04T14:57:52;3.90;99.90
41668;DHT22;27356;50.920;5.350;2023-12-04T15:00:37;4.00;99.90
41668;DHT22;27356;50.920;5.350;2023-12-04T15:03:23;4.10;99.90
41668;DHT22;27356;50.920;5.350;2023-12-04T15:05:49;4.20;99.90
41668;DHT22;27356;50.920;5.350;2023-12-04T15:08:33;4.20;99.90
41668;DHT22;27356;50.920;5.350;2023-12-04T15:11:17;4.30;99.90
41668;DHT22;27356;50.920;5.350;2023-12-04T15:14:03;4.30;99.90
41668;DHT22;27356;50.920;5.350;2023-12-04T15:16:47;4.20;99.90
41668;DHT22;27356;50.920;5.350;2023-12-04T15:19:17;4.10;99.90
41668;DHT22;27356;50.920;5.350;2023-12-04T15:22:08;4.10;99.90
41668;DHT22;27356;50.920;5.350;2023-12-04T15:24:35;4.00;99.90
41668;DHT22;27356;50.920;5.350;2023-12-04T15:27:00;3.90;99.90
41668;DHT22;27356;50.920;5.350;2023-12-04T15:29:28;3.90;99.90
41668;DHT22;27356;50.920;5.350;2023-12-04T15:31:55;3.90;99.90
41668;DHT22;27356;50.920;5.350;2023-12-04T15:34:22;4.00;99.90
41668;DHT22;27356;50.920;5.350;2023-12-04T15:37:08;4.00;99.90
41668;DHT22;27356;50.920;5.350;2023-12-04T15:39:38;4.00;99.90
41668;DHT22;27356;50.920;5.350;2023-12-04T15:42:09;4.00;99.90
41668;DHT22;27356;50.920;5.350;2023-12-04T15:44:34;4.00;99.90
41668;DHT22;27356;50.920;5.350;2023-12-04T15:47:00;4.10;99.90
41668;DHT22;27356;50.920;5.350;2023-12-04T15:49:26;4.30;99.90
41668;DHT22;27356;50.920;5.350;2023-12-04T15:51:51;4.20;99.90